cloudbaseCU.php : Version 1.5 - copyright 2013 Silver Acorn Limited
Date/Time : Wed, 21 Aug 2019 23:06:54 (Night)
Time Zone : Europe/London (GMT+1 hours)
INPUT ITEM: RAW DATA -> DERIVED
    Current temp : 13.2 -> 13.2 °C
    Dewpoint : 12.4 -> 12.4 °C
    Rain Fall : 5.6 -> 5.6 mm
    Barometer : 1016.5 -> 1017 hPa
    Humidity : 44 -> 44 %
    Wind Speed : 0.0 -> 0.0 mph
    Wind Dir : 199.0 -> 199.0 degrees
    Cloud Altitude : 320 -> 320 ft (AGL)
    Latitude : 54 -> N = Northern Hemisphere
    Season : -> Summer
    Moon Age : 20 -> 20 days
    Is daylight : 0 -> Night
    Realtime file Interval : 15 -> 15 Seconds
    Tag file time Interval : 5 -> 5 Minutes
CUMULUS CONDITIONS
    Cumulus conditions not in use
    Zambretti # : 0 -> 0
METAR CONDITONS - Metar Times UNC, Update Station times based on timezone setting
    $pathToMetFile : ./cache/
    Metar - Rawdata : 2019/08/21 21:50 EGAC 212150Z AUTO 21009KT 9999 NCD 14/13 Q1016
    Metar - Trimmed : 212150Z AUTO 21009KT 9999 NCD 14/13 Q1016
    Metar - Decoded : Not Raining; Sunny
    Now : 1566425214 seconds or Station Time of 23:06:54
    Metar report timestamp : 1566424200 seconds
    Age of File : 16.9 minutes
    When to update Metar : 1566426540 seconds (When station time ~ 23:29:00)
        (Metar report timestamp plus 39 mins refresh time)
    Next Download in : 22.1 Minutes (if  '-' then refresh page, if still '-' then download overdue!)
    Metar file : Existing file re-used
    Note:- Metar updates are usually Hourly unless AUTO when they may update every 30 minutes
OUTPUT DATA

    $showAGLASL : true
Cloud Temp : 11 °C
Background image file name : ./images/cb/cb-bg-00sumn.png
    $useWXrain : true
    $tagint : 5
    Last rain : 9 minutes ago
    $wxrain : false
"useWXrain" results :-
    No rain in last 5 minutes -> Not raining
SETTINGS
    $realtime : cloudbase.txt
    $metarICAO : EGAC
    $pathToMetFile : ./cache/
    $tz : Europe/London - The setting in this script, may be overidden by the Saratoga SITE setting
    $pathToImages : ./images/cb/
    $pathToMoonImages : ./images/cb/moon/
    $translate : true
    $switchSeasons : true
    $showCldSource : true
    $showCloudTemp : true
    $showCaption : true
    $showMoon : true
    $showScale : true
    $showWinsock : false
    $showWindDir : false
    $showWindSpd : false
    $showTemp : false
    $showHumidity : false
    $showBaro : false
    $alwaysShowCloud : false
    $useCUHeight : false
    $getMetar : true
    $metarRefresh : true
    $useMetarAtNight : true
    $onlyUseMetar : true
    $reportMistAt : 25 ft
    $stationAltitude : 0 ft